sensor_id;sensor_type;location;lat;lon;timestamp;P1;P2;P0
43280;PMS5003;62175;49.416;8.690;2022-08-05T00:01:11;13;11;
43280;PMS5003;62175;49.416;8.690;2022-08-05T00:03:39;11;10;
43280;PMS5003;62175;49.416;8.690;2022-08-05T00:06:07;8;8;
43280;PMS5003;62175;49.416;8.690;2022-08-05T00:08:35;9;9;
43280;PMS5003;62175;49.416;8.690;2022-08-05T00:11:04;11;11;
43280;PMS5003;62175;49.416;8.690;2022-08-05T00:13:33;12;11;
43280;PMS5003;62175;49.416;8.690;2022-08-05T00:16:02;11;11;
43280;PMS5003;62175;49.416;8.690;2022-08-05T00:18:29;12;11;
43280;PMS5003;62175;49.416;8.690;2022-08-05T00:20:57;9;9;
43280;PMS5003;62175;49.416;8.690;2022-08-05T00:23:24;10;9;
43280;PMS5003;62175;49.416;8.690;2022-08-05T00:25:52;9;9;
43280;PMS5003;62175;49.416;8.690;2022-08-05T00:28:19;8;8;
43280;PMS5003;62175;49.416;8.690;2022-08-05T00:30:45;10;10;
43280;PMS5003;62175;49.416;8.690;2022-08-05T00:33:14;10;10;
43280;PMS5003;62175;49.416;8.690;2022-08-05T00:35:41;10;10;
43280;PMS5003;62175;49.416;8.690;2022-08-05T00:38:08;8;8;
43280;PMS5003;62175;49.416;8.690;2022-08-05T00:40:44;9;9;
43280;PMS5003;62175;49.416;8.690;2022-08-05T00:43:13;10;9;
43280;PMS5003;62175;49.416;8.690;2022-08-05T00:45:41;10;8;
43280;PMS5003;62175;49.416;8.690;2022-08-05T00:48:08;14;12;
43280;PMS5003;62175;49.416;8.690;2022-08-05T00:50:37;10;10;
43280;PMS5003;62175;49.416;8.690;2022-08-05T00:53:05;10;10;
43280;PMS5003;62175;49.416;8.690;2022-08-05T00:55:32;10;10;
43280;PMS5003;62175;49.416;8.690;2022-08-05T00:58:00;13;12;
43280;PMS5003;62175;49.416;8.690;2022-08-05T01:00:28;14;13;
43280;PMS5003;62175;49.416;8.690;2022-08-05T01:02:56;11;11;
43280;PMS5003;62175;49.416;8.690;2022-08-05T01:05:24;13;12;
43280;PMS5003;62175;49.416;8.690;2022-08-05T01:07:52;13;11;
43280;PMS5003;62175;49.416;8.690;2022-08-05T01:10:21;15;12;
43280;PMS5003;62175;49.416;8.690;2022-08-05T01:13:02;16;15;
43280;PMS5003;62175;49.416;8.690;2022-08-05T01:15:38;16;15;
43280;PMS5003;62175;49.416;8.690;2022-08-05T01:18:11;15;15;
43280;PMS5003;62175;49.416;8.690;2022-08-05T01:20:48;15;15;
43280;PMS5003;62175;49.416;8.690;2022-08-05T01:23:24;15;15;
43280;PMS5003;62175;49.416;8.690;2022-08-05T01:26:11;21;19;
43280;PMS5003;62175;49.416;8.690;2022-08-05T01:28:56;15;15;
43280;PMS5003;62175;49.416;8.690;2022-08-05T01:31:26;18;17;
43280;PMS5003;62175;49.416;8.690;2022-08-05T01:34:03;18;18;
43280;PMS5003;62175;49.416;8.690;2022-08-05T01:36:38;17;17;
43280;PMS5003;62175;49.416;8.690;2022-08-05T01:39:09;17;17;
43280;PMS5003;62175;49.416;8.690;2022-08-05T01:41:39;19;18;
43280;PMS5003;62175;49.416;8.690;2022-08-05T01:44:08;19;18;
43280;PMS5003;62175;49.416;8.690;2022-08-05T01:46:38;19;17;
43280;PMS5003;62175;49.416;8.690;2022-08-05T01:49:06;18;16;
43280;PMS5003;62175;49.416;8.690;2022-08-05T01:51:38;17;16;
43280;PMS5003;62175;49.416;8.690;2022-08-05T01:54:07;16;16;
43280;PMS5003;62175;49.416;8.690;2022-08-05T01:56:36;18;17;
43280;PMS5003;62175;49.416;8.690;2022-08-05T01:59:08;21;20;
43280;PMS5003;62175;49.416;8.690;2022-08-05T02:01:40;25;23;
43280;PMS5003;62175;49.416;8.690;2022-08-05T02:04:09;21;20;
43280;PMS5003;62175;49.416;8.690;2022-08-05T02:06:37;28;27;
43280;PMS5003;62175;49.416;8.690;2022-08-05T02:09:05;25;23;
43280;PMS5003;62175;49.416;8.690;2022-08-05T02:11:38;26;24;
43280;PMS5003;62175;49.416;8.690;2022-08-05T02:14:11;23;22;
43280;PMS5003;62175;49.416;8.690;2022-08-05T02:16:43;20;19;
43280;PMS5003;62175;49.416;8.690;2022-08-05T02:19:24;18;15;
43280;PMS5003;62175;49.416;8.690;2022-08-05T02:22:01;16;15;
43280;PMS5003;62175;49.416;8.690;2022-08-05T02:24:36;15;15;
43280;PMS5003;62175;49.416;8.690;2022-08-05T02:27:05;15;15;
43280;PMS5003;62175;49.416;8.690;2022-08-05T02:29:36;21;19;
43280;PMS5003;62175;49.416;8.690;2022-08-05T02:32:07;23;23;
43280;PMS5003;62175;49.416;8.690;2022-08-05T02:34:36;22;22;
43280;PMS5003;62175;49.416;8.690;2022-08-05T02:37:04;29;23;
43280;PMS5003;62175;49.416;8.690;2022-08-05T02:39:35;24;23;
43280;PMS5003;62175;49.416;8.690;2022-08-05T02:42:03;26;21;
43280;PMS5003;62175;49.416;8.690;2022-08-05T02:44:33;23;22;
43280;PMS5003;62175;49.416;8.690;2022-08-05T02:47:04;17;17;
43280;PMS5003;62175;49.416;8.690;2022-08-05T02:49:34;17;17;
43280;PMS5003;62175;49.416;8.690;2022-08-05T02:52:06;20;20;
43280;PMS5003;62175;49.416;8.690;2022-08-05T02:54:35;17;17;
43280;PMS5003;62175;49.416;8.690;2022-08-05T02:57:06;18;17;
43280;PMS5003;62175;49.416;8.690;2022-08-05T02:59:36;19;17;
43280;PMS5003;62175;49.416;8.690;2022-08-05T03:02:06;17;15;
43280;PMS5003;62175;49.416;8.690;2022-08-05T03:04:34;16;16;
43280;PMS5003;62175;49.416;8.690;2022-08-05T03:07:03;16;15;
43280;PMS5003;62175;49.416;8.690;2022-08-05T03:09:32;15;14;
43280;PMS5003;62175;49.416;8.690;2022-08-05T03:11:59;16;16;
43280;PMS5003;62175;49.416;8.690;2022-08-05T03:14:27;16;16;
43280;PMS5003;62175;49.416;8.690;2022-08-05T03:16:55;14;13;
43280;PMS5003;62175;49.416;8.690;2022-08-05T03:19:22;17;16;
43280;PMS5003;62175;49.416;8.690;2022-08-05T03:21:50;19;19;
43280;PMS5003;62175;49.416;8.690;2022-08-05T03:24:18;17;16;
43280;PMS5003;62175;49.416;8.690;2022-08-05T03:26:46;21;20;
43280;PMS5003;62175;49.416;8.690;2022-08-05T03:29:13;20;19;
43280;PMS5003;62175;49.416;8.690;2022-08-05T03:31:41;16;16;
43280;PMS5003;62175;49.416;8.690;2022-08-05T03:34:08;17;17;
43280;PMS5003;62175;49.416;8.690;2022-08-05T03:36:36;20;19;
43280;PMS5003;62175;49.416;8.690;2022-08-05T03:39:06;20;18;
43280;PMS5003;62175;49.416;8.690;2022-08-05T03:41:33;17;17;
43280;PMS5003;62175;49.416;8.690;2022-08-05T03:44:01;15;14;
43280;PMS5003;62175;49.416;8.690;2022-08-05T03:46:28;19;18;
43280;PMS5003;62175;49.416;8.690;2022-08-05T03:48:56;17;17;
43280;PMS5003;62175;49.416;8.690;2022-08-05T03:51:26;20;18;
43280;PMS5003;62175;49.416;8.690;2022-08-05T03:53:58;19;18;
43280;PMS5003;62175;49.416;8.690;2022-08-05T03:56:32;18;17;
43280;PMS5003;62175;49.416;8.690;2022-08-05T03:59:05;17;16;
43280;PMS5003;62175;49.416;8.690;2022-08-05T04:01:36;16;15;
43280;PMS5003;62175;49.416;8.690;2022-08-05T04:04:07;15;15;
43280;PMS5003;62175;49.416;8.690;2022-08-05T04:06:37;18;17;
43280;PMS5003;62175;49.416;8.690;2022-08-05T04:09:06;18;17;
43280;PMS5003;62175;49.416;8.690;2022-08-05T04:11:34;19;18;
43280;PMS5003;62175;49.416;8.690;2022-08-05T04:14:02;21;20;
43280;PMS5003;62175;49.416;8.690;2022-08-05T04:16:30;24;22;
43280;PMS5003;62175;49.416;8.690;2022-08-05T04:18:58;21;20;
43280;PMS5003;62175;49.416;8.690;2022-08-05T04:21:25;19;18;
43280;PMS5003;62175;49.416;8.690;2022-08-05T04:23:53;25;23;
43280;PMS5003;62175;49.416;8.690;2022-08-05T04:26:22;23;23;
43280;PMS5003;62175;49.416;8.690;2022-08-05T04:28:49;20;20;
43280;PMS5003;62175;49.416;8.690;2022-08-05T04:31:17;23;22;
43280;PMS5003;62175;49.416;8.690;2022-08-05T04:33:44;22;22;
43280;PMS5003;62175;49.416;8.690;2022-08-05T04:36:11;20;18;
43280;PMS5003;62175;49.416;8.690;2022-08-05T04:38:39;24;20;
43280;PMS5003;62175;49.416;8.690;2022-08-05T04:41:07;18;18;
43280;PMS5003;62175;49.416;8.690;2022-08-05T04:43:35;19;19;
43280;PMS5003;62175;49.416;8.690;2022-08-05T04:46:02;17;16;
43280;PMS5003;62175;49.416;8.690;2022-08-05T04:48:29;15;15;
43280;PMS5003;62175;49.416;8.690;2022-08-05T04:50:57;16;15;
43280;PMS5003;62175;49.416;8.690;2022-08-05T04:53:24;13;13;
43280;PMS5003;62175;49.416;8.690;2022-08-05T04:55:51;12;11;
43280;PMS5003;62175;49.416;8.690;2022-08-05T04:58:18;14;13;
43280;PMS5003;62175;49.416;8.690;2022-08-05T05:00:46;14;14;
43280;PMS5003;62175;49.416;8.690;2022-08-05T05:03:13;17;14;
43280;PMS5003;62175;49.416;8.690;2022-08-05T05:05:40;15;13;
43280;PMS5003;62175;49.416;8.690;2022-08-05T05:08:08;13;12;
43280;PMS5003;62175;49.416;8.690;2022-08-05T05:10:37;11;10;
43280;PMS5003;62175;49.416;8.690;2022-08-05T05:13:06;8;7;
43280;PMS5003;62175;49.416;8.690;2022-08-05T05:15:34;8;8;
43280;PMS5003;62175;49.416;8.690;2022-08-05T05:18:01;8;7;
43280;PMS5003;62175;49.416;8.690;2022-08-05T05:20:28;9;9;
43280;PMS5003;62175;49.416;8.690;2022-08-05T05:22:55;7;7;
43280;PMS5003;62175;49.416;8.690;2022-08-05T05:25:23;8;7;
43280;PMS5003;62175;49.416;8.690;2022-08-05T05:27:51;8;8;
43280;PMS5003;62175;49.416;8.690;2022-08-05T05:30:18;7;6;
43280;PMS5003;62175;49.416;8.690;2022-08-05T05:32:46;6;6;
43280;PMS5003;62175;49.416;8.690;2022-08-05T05:35:13;9;8;
43280;PMS5003;62175;49.416;8.690;2022-08-05T05:37:49;8;8;
43280;PMS5003;62175;49.416;8.690;2022-08-05T05:40:17;8;7;
43280;PMS5003;62175;49.416;8.690;2022-08-05T05:42:45;8;8;
43280;PMS5003;62175;49.416;8.690;2022-08-05T05:45:13;8;7;
43280;PMS5003;62175;49.416;8.690;2022-08-05T05:47:40;7;7;
43280;PMS5003;62175;49.416;8.690;2022-08-05T05:50:09;6;6;
43280;PMS5003;62175;49.416;8.690;2022-08-05T05:52:38;7;7;
43280;PMS5003;62175;49.416;8.690;2022-08-05T05:55:07;7;7;
43280;PMS5003;62175;49.416;8.690;2022-08-05T05:57:37;6;5;
43280;PMS5003;62175;49.416;8.690;2022-08-05T06:00:06;6;6;
43280;PMS5003;62175;49.416;8.690;2022-08-05T06:02:35;9;8;
43280;PMS5003;62175;49.416;8.690;2022-08-05T06:05:02;6;6;
43280;PMS5003;62175;49.416;8.690;2022-08-05T06:07:29;10;8;
43280;PMS5003;62175;49.416;8.690;2022-08-05T06:09:56;8;8;
43280;PMS5003;62175;49.416;8.690;2022-08-05T06:12:23;6;6;
43280;PMS5003;62175;49.416;8.690;2022-08-05T06:14:50;8;8;
43280;PMS5003;62175;49.416;8.690;2022-08-05T06:17:17;8;8;
43280;PMS5003;62175;49.416;8.690;2022-08-05T06:19:43;7;6;
43280;PMS5003;62175;49.416;8.690;2022-08-05T06:22:11;12;10;
43280;PMS5003;62175;49.416;8.690;2022-08-05T06:24:40;11;9;
43280;PMS5003;62175;49.416;8.690;2022-08-05T06:27:09;6;6;
43280;PMS5003;62175;49.416;8.690;2022-08-05T06:29:36;7;7;
43280;PMS5003;62175;49.416;8.690;2022-08-05T06:32:04;7;7;
43280;PMS5003;62175;49.416;8.690;2022-08-05T06:34:32;7;7;
43280;PMS5003;62175;49.416;8.690;2022-08-05T06:36:59;7;7;
43280;PMS5003;62175;49.416;8.690;2022-08-05T06:39:26;6;6;
43280;PMS5003;62175;49.416;8.690;2022-08-05T06:41:55;7;7;
43280;PMS5003;62175;49.416;8.690;2022-08-05T06:44:22;7;7;
43280;PMS5003;62175;49.416;8.690;2022-08-05T06:46:49;7;7;
43280;PMS5003;62175;49.416;8.690;2022-08-05T06:49:17;7;7;
43280;PMS5003;62175;49.416;8.690;2022-08-05T06:51:44;7;7;
43280;PMS5003;62175;49.416;8.690;2022-08-05T06:54:11;8;7;
43280;PMS5003;62175;49.416;8.690;2022-08-05T06:56:38;7;7;
43280;PMS5003;62175;49.416;8.690;2022-08-05T06:59:06;5;5;
43280;PMS5003;62175;49.416;8.690;2022-08-05T07:01:35;8;8;
43280;PMS5003;62175;49.416;8.690;2022-08-05T07:04:05;8;7;
43280;PMS5003;62175;49.416;8.690;2022-08-05T07:06:34;7;6;
43280;PMS5003;62175;49.416;8.690;2022-08-05T07:11:00;7;7;
43280;PMS5003;62175;49.416;8.690;2022-08-05T07:13:28;8;7;
43280;PMS5003;62175;49.416;8.690;2022-08-05T07:17:07;6;5;
43280;PMS5003;62175;49.416;8.690;2022-08-05T07:19:35;7;7;
43280;PMS5003;62175;49.416;8.690;2022-08-05T07:22:03;9;9;
43280;PMS5003;62175;49.416;8.690;2022-08-05T07:24:31;8;8;
43280;PMS5003;62175;49.416;8.690;2022-08-05T07:26:58;8;8;
43280;PMS5003;62175;49.416;8.690;2022-08-05T07:29:26;7;6;
43280;PMS5003;62175;49.416;8.690;2022-08-05T07:31:53;8;8;
43280;PMS5003;62175;49.416;8.690;2022-08-05T07:34:20;7;7;
43280;PMS5003;62175;49.416;8.690;2022-08-05T07:36:51;8;7;
43280;PMS5003;62175;49.416;8.690;2022-08-05T07:39:24;7;6;
43280;PMS5003;62175;49.416;8.690;2022-08-05T07:41:51;7;7;
43280;PMS5003;62175;49.416;8.690;2022-08-05T07:44:18;10;8;
43280;PMS5003;62175;49.416;8.690;2022-08-05T07:46:46;6;6;
43280;PMS5003;62175;49.416;8.690;2022-08-05T07:49:13;7;6;
43280;PMS5003;62175;49.416;8.690;2022-08-05T07:51:41;6;6;
43280;PMS5003;62175;49.416;8.690;2022-08-05T07:54:08;7;6;
43280;PMS5003;62175;49.416;8.690;2022-08-05T07:56:36;5;4;
43280;PMS5003;62175;49.416;8.690;2022-08-05T07:59:04;5;5;
43280;PMS5003;62175;49.416;8.690;2022-08-05T08:01:31;6;5;
43280;PMS5003;62175;49.416;8.690;2022-08-05T08:03:59;5;5;
43280;PMS5003;62175;49.416;8.690;2022-08-05T08:06:26;5;5;
43280;PMS5003;62175;49.416;8.690;2022-08-05T08:08:53;6;5;
43280;PMS5003;62175;49.416;8.690;2022-08-05T08:11:21;6;5;
43280;PMS5003;62175;49.416;8.690;2022-08-05T08:13:48;5;5;
43280;PMS5003;62175;49.416;8.690;2022-08-05T08:16:16;6;6;
43280;PMS5003;62175;49.416;8.690;2022-08-05T08:18:44;5;5;
43280;PMS5003;62175;49.416;8.690;2022-08-05T08:21:11;8;7;
43280;PMS5003;62175;49.416;8.690;2022-08-05T08:23:39;5;5;
43280;PMS5003;62175;49.416;8.690;2022-08-05T08:26:07;5;5;
43280;PMS5003;62175;49.416;8.690;2022-08-05T08:28:35;5;5;
43280;PMS5003;62175;49.416;8.690;2022-08-05T08:31:03;6;6;
43280;PMS5003;62175;49.416;8.690;2022-08-05T08:33:30;7;6;
43280;PMS5003;62175;49.416;8.690;2022-08-05T08:35:57;6;6;
43280;PMS5003;62175;49.416;8.690;2022-08-05T08:38:24;6;6;
43280;PMS5003;62175;49.416;8.690;2022-08-05T08:40:51;8;7;
43280;PMS5003;62175;49.416;8.690;2022-08-05T08:43:18;7;7;
43280;PMS5003;62175;49.416;8.690;2022-08-05T08:45:48;8;8;
43280;PMS5003;62175;49.416;8.690;2022-08-05T08:48:18;6;6;
43280;PMS5003;62175;49.416;8.690;2022-08-05T08:50:46;7;7;
43280;PMS5003;62175;49.416;8.690;2022-08-05T08:53:14;7;6;
43280;PMS5003;62175;49.416;8.690;2022-08-05T08:55:43;8;8;
43280;PMS5003;62175;49.416;8.690;2022-08-05T08:58:11;8;7;
43280;PMS5003;62175;49.416;8.690;2022-08-05T09:00:41;5;5;
43280;PMS5003;62175;49.416;8.690;2022-08-05T09:03:10;7;7;
43280;PMS5003;62175;49.416;8.690;2022-08-05T09:05:38;5;5;
43280;PMS5003;62175;49.416;8.690;2022-08-05T09:08:06;6;6;
43280;PMS5003;62175;49.416;8.690;2022-08-05T09:10:33;5;5;
43280;PMS5003;62175;49.416;8.690;2022-08-05T09:13:00;6;6;
43280;PMS5003;62175;49.416;8.690;2022-08-05T09:15:27;7;7;
43280;PMS5003;62175;49.416;8.690;2022-08-05T09:17:55;6;6;
43280;PMS5003;62175;49.416;8.690;2022-08-05T09:20:23;7;7;
43280;PMS5003;62175;49.416;8.690;2022-08-05T09:23:07;6;6;
43280;PMS5003;62175;49.416;8.690;2022-08-05T09:25:37;6;6;
43280;PMS5003;62175;49.416;8.690;2022-08-05T09:28:08;8;6;
43280;PMS5003;62175;49.416;8.690;2022-08-05T09:30:41;6;6;
43280;PMS5003;62175;49.416;8.690;2022-08-05T09:33:10;5;5;
43280;PMS5003;62175;49.416;8.690;2022-08-05T09:35:37;6;6;
43280;PMS5003;62175;49.416;8.690;2022-08-05T09:38:17;5;5;
43280;PMS5003;62175;49.416;8.690;2022-08-05T09:40:45;6;6;
43280;PMS5003;62175;49.416;8.690;2022-08-05T09:43:26;7;6;
43280;PMS5003;62175;49.416;8.690;2022-08-05T09:45:56;7;7;
43280;PMS5003;62175;49.416;8.690;2022-08-05T09:48:24;7;7;
43280;PMS5003;62175;49.416;8.690;2022-08-05T09:50:53;5;5;
43280;PMS5003;62175;49.416;8.690;2022-08-05T09:53:22;5;4;
43280;PMS5003;62175;49.416;8.690;2022-08-05T09:55:50;5;5;
43280;PMS5003;62175;49.416;8.690;2022-08-05T09:58:18;5;5;
43280;PMS5003;62175;49.416;8.690;2022-08-05T10:00:55;6;5;
43280;PMS5003;62175;49.416;8.690;2022-08-05T10:03:25;5;5;
43280;PMS5003;62175;49.416;8.690;2022-08-05T10:06:01;4;4;
43280;PMS5003;62175;49.416;8.690;2022-08-05T10:08:31;5;5;
43280;PMS5003;62175;49.416;8.690;2022-08-05T10:10:59;4;4;
43280;PMS5003;62175;49.416;8.690;2022-08-05T10:13:30;4;4;
43280;PMS5003;62175;49.416;8.690;2022-08-05T10:15:59;6;4;
43280;PMS5003;62175;49.416;8.690;2022-08-05T10:18:27;4;3;
43280;PMS5003;62175;49.416;8.690;2022-08-05T10:20:56;2;2;
43280;PMS5003;62175;49.416;8.690;2022-08-05T10:23:25;3;3;
43280;PMS5003;62175;49.416;8.690;2022-08-05T10:25:54;4;4;
43280;PMS5003;62175;49.416;8.690;2022-08-05T10:28:23;4;3;
43280;PMS5003;62175;49.416;8.690;2022-08-05T10:30:50;5;5;
43280;PMS5003;62175;49.416;8.690;2022-08-05T10:33:19;5;5;
43280;PMS5003;62175;49.416;8.690;2022-08-05T10:35:47;4;4;
43280;PMS5003;62175;49.416;8.690;2022-08-05T10:38:17;4;4;
43280;PMS5003;62175;49.416;8.690;2022-08-05T10:40:49;3;3;
43280;PMS5003;62175;49.416;8.690;2022-08-05T10:43:24;5;4;
43280;PMS5003;62175;49.416;8.690;2022-08-05T10:46:01;6;6;
43280;PMS5003;62175;49.416;8.690;2022-08-05T10:48:31;6;5;
43280;PMS5003;62175;49.416;8.690;2022-08-05T10:51:03;3;3;
43280;PMS5003;62175;49.416;8.690;2022-08-05T10:53:36;5;5;
43280;PMS5003;62175;49.416;8.690;2022-08-05T10:56:11;6;5;
43280;PMS5003;62175;49.416;8.690;2022-08-05T10:59:00;4;4;
43280;PMS5003;62175;49.416;8.690;2022-08-05T11:01:29;7;6;
43280;PMS5003;62175;49.416;8.690;2022-08-05T11:04:06;5;5;
43280;PMS5003;62175;49.416;8.690;2022-08-05T11:06:36;6;6;
43280;PMS5003;62175;49.416;8.690;2022-08-05T11:09:35;5;5;
43280;PMS5003;62175;49.416;8.690;2022-08-05T11:12:03;5;4;
43280;PMS5003;62175;49.416;8.690;2022-08-05T11:15:07;6;5;
43280;PMS5003;62175;49.416;8.690;2022-08-05T11:17:41;6;6;
43280;PMS5003;62175;49.416;8.690;2022-08-05T11:20:30;5;5;
43280;PMS5003;62175;49.416;8.690;2022-08-05T11:23:24;6;5;
43280;PMS5003;62175;49.416;8.690;2022-08-05T11:26:01;6;5;
43280;PMS5003;62175;49.416;8.690;2022-08-05T11:28:39;6;5;
43280;PMS5003;62175;49.416;8.690;2022-08-05T11:31:25;5;5;
43280;PMS5003;62175;49.416;8.690;2022-08-05T11:33:55;4;4;
43280;PMS5003;62175;49.416;8.690;2022-08-05T11:36:41;7;7;
43280;PMS5003;62175;49.416;8.690;2022-08-05T11:39:11;6;6;
43280;PMS5003;62175;49.416;8.690;2022-08-05T11:41:41;7;7;
43280;PMS5003;62175;49.416;8.690;2022-08-05T11:44:15;7;7;
43280;PMS5003;62175;49.416;8.690;2022-08-05T11:46:46;6;6;
43280;PMS5003;62175;49.416;8.690;2022-08-05T11:49:16;8;7;
43280;PMS5003;62175;49.416;8.690;2022-08-05T11:51:45;8;7;
43280;PMS5003;62175;49.416;8.690;2022-08-05T11:54:18;8;8;
43280;PMS5003;62175;49.416;8.690;2022-08-05T11:56:48;7;6;
43280;PMS5003;62175;49.416;8.690;2022-08-05T11:59:17;7;7;
43280;PMS5003;62175;49.416;8.690;2022-08-05T12:01:54;9;8;
43280;PMS5003;62175;49.416;8.690;2022-08-05T12:04:24;7;7;
43280;PMS5003;62175;49.416;8.690;2022-08-05T12:06:52;7;7;
43280;PMS5003;62175;49.416;8.690;2022-08-05T12:09:22;8;8;
43280;PMS5003;62175;49.416;8.690;2022-08-05T12:11:50;8;8;
43280;PMS5003;62175;49.416;8.690;2022-08-05T12:14:18;8;7;
43280;PMS5003;62175;49.416;8.690;2022-08-05T12:16:46;8;7;
43280;PMS5003;62175;49.416;8.690;2022-08-05T12:19:14;9;8;
43280;PMS5003;62175;49.416;8.690;2022-08-05T12:21:43;9;8;
43280;PMS5003;62175;49.416;8.690;2022-08-05T12:24:13;9;8;
43280;PMS5003;62175;49.416;8.690;2022-08-05T12:26:43;8;8;
43280;PMS5003;62175;49.416;8.690;2022-08-05T12:29:12;8;8;
43280;PMS5003;62175;49.416;8.690;2022-08-05T12:31:43;11;10;
43280;PMS5003;62175;49.416;8.690;2022-08-05T12:34:12;7;7;
43280;PMS5003;62175;49.416;8.690;2022-08-05T12:36:40;8;7;
43280;PMS5003;62175;49.416;8.690;2022-08-05T12:39:10;7;7;
43280;PMS5003;62175;49.416;8.690;2022-08-05T12:41:38;6;6;
43280;PMS5003;62175;49.416;8.690;2022-08-05T12:44:08;7;7;
43280;PMS5003;62175;49.416;8.690;2022-08-05T12:46:37;6;6;
43280;PMS5003;62175;49.416;8.690;2022-08-05T12:49:06;8;8;
43280;PMS5003;62175;49.416;8.690;2022-08-05T12:51:43;7;7;
43280;PMS5003;62175;49.416;8.690;2022-08-05T12:54:16;7;7;
43280;PMS5003;62175;49.416;8.690;2022-08-05T12:56:46;7;6;
43280;PMS5003;62175;49.416;8.690;2022-08-05T12:59:16;7;6;
43280;PMS5003;62175;49.416;8.690;2022-08-05T13:01:52;7;7;
43280;PMS5003;62175;49.416;8.690;2022-08-05T13:04:20;7;7;
43280;PMS5003;62175;49.416;8.690;2022-08-05T13:06:48;7;6;
43280;PMS5003;62175;49.416;8.690;2022-08-05T13:09:15;5;5;
43280;PMS5003;62175;49.416;8.690;2022-08-05T13:11:43;7;7;
43280;PMS5003;62175;49.416;8.690;2022-08-05T13:14:14;6;6;
43280;PMS5003;62175;49.416;8.690;2022-08-05T13:16:45;7;6;
43280;PMS5003;62175;49.416;8.690;2022-08-05T13:19:13;10;8;
43280;PMS5003;62175;49.416;8.690;2022-08-05T13:21:41;8;6;
43280;PMS5003;62175;49.416;8.690;2022-08-05T13:24:11;7;7;
43280;PMS5003;62175;49.416;8.690;2022-08-05T13:26:39;7;6;
43280;PMS5003;62175;49.416;8.690;2022-08-05T13:29:06;8;8;
43280;PMS5003;62175;49.416;8.690;2022-08-05T13:31:34;7;7;
43280;PMS5003;62175;49.416;8.690;2022-08-05T13:34:01;8;8;
43280;PMS5003;62175;49.416;8.690;2022-08-05T13:36:29;10;9;
43280;PMS5003;62175;49.416;8.690;2022-08-05T13:38:57;8;8;
43280;PMS5003;62175;49.416;8.690;2022-08-05T13:41:24;10;10;
43280;PMS5003;62175;49.416;8.690;2022-08-05T13:43:52;8;8;
43280;PMS5003;62175;49.416;8.690;2022-08-05T13:46:20;13;9;
43280;PMS5003;62175;49.416;8.690;2022-08-05T13:48:47;10;9;
43280;PMS5003;62175;49.416;8.690;2022-08-05T13:51:15;8;7;
43280;PMS5003;62175;49.416;8.690;2022-08-05T13:53:50;8;8;
43280;PMS5003;62175;49.416;8.690;2022-08-05T13:56:19;7;7;
43280;PMS5003;62175;49.416;8.690;2022-08-05T13:58:46;8;8;
43280;PMS5003;62175;49.416;8.690;2022-08-05T14:01:14;8;8;
43280;PMS5003;62175;49.416;8.690;2022-08-05T14:03:41;9;8;
43280;PMS5003;62175;49.416;8.690;2022-08-05T14:06:08;10;9;
43280;PMS5003;62175;49.416;8.690;2022-08-05T14:08:36;5;5;
43280;PMS5003;62175;49.416;8.690;2022-08-05T14:11:03;9;8;
43280;PMS5003;62175;49.416;8.690;2022-08-05T14:13:31;7;7;
43280;PMS5003;62175;49.416;8.690;2022-08-05T14:15:59;6;6;
43280;PMS5003;62175;49.416;8.690;2022-08-05T14:18:26;6;6;
43280;PMS5003;62175;49.416;8.690;2022-08-05T14:20:54;5;5;
43280;PMS5003;62175;49.416;8.690;2022-08-05T14:23:24;7;7;
43280;PMS5003;62175;49.416;8.690;2022-08-05T14:25:53;7;6;
43280;PMS5003;62175;49.416;8.690;2022-08-05T14:28:20;9;9;
43280;PMS5003;62175;49.416;8.690;2022-08-05T14:30:48;5;5;
43280;PMS5003;62175;49.416;8.690;2022-08-05T14:33:16;6;6;
43280;PMS5003;62175;49.416;8.690;2022-08-05T14:35:44;7;7;
43280;PMS5003;62175;49.416;8.690;2022-08-05T14:38:13;7;6;
43280;PMS5003;62175;49.416;8.690;2022-08-05T14:40:40;7;7;
43280;PMS5003;62175;49.416;8.690;2022-08-05T14:43:08;7;7;
43280;PMS5003;62175;49.416;8.690;2022-08-05T14:45:36;8;7;
43280;PMS5003;62175;49.416;8.690;2022-08-05T14:48:03;6;6;
43280;PMS5003;62175;49.416;8.690;2022-08-05T14:50:31;8;8;
43280;PMS5003;62175;49.416;8.690;2022-08-05T14:52:58;7;7;
43280;PMS5003;62175;49.416;8.690;2022-08-05T14:55:26;6;6;
43280;PMS5003;62175;49.416;8.690;2022-08-05T14:57:54;6;5;
43280;PMS5003;62175;49.416;8.690;2022-08-05T15:00:21;6;5;
43280;PMS5003;62175;49.416;8.690;2022-08-05T15:02:50;7;7;
43280;PMS5003;62175;49.416;8.690;2022-08-05T15:05:18;8;7;
43280;PMS5003;62175;49.416;8.690;2022-08-05T15:07:45;7;6;
43280;PMS5003;62175;49.416;8.690;2022-08-05T15:10:11;6;6;
43280;PMS5003;62175;49.416;8.690;2022-08-05T15:12:38;7;7;
43280;PMS5003;62175;49.416;8.690;2022-08-05T15:15:07;8;7;
43280;PMS5003;62175;49.416;8.690;2022-08-05T15:17:35;8;7;
43280;PMS5003;62175;49.416;8.690;2022-08-05T15:20:02;7;6;
43280;PMS5003;62175;49.416;8.690;2022-08-05T15:22:30;8;7;
43280;PMS5003;62175;49.416;8.690;2022-08-05T15:24:57;7;7;
43280;PMS5003;62175;49.416;8.690;2022-08-05T15:27:24;8;8;
43280;PMS5003;62175;49.416;8.690;2022-08-05T15:29:52;7;7;
43280;PMS5003;62175;49.416;8.690;2022-08-05T15:32:19;9;9;
43280;PMS5003;62175;49.416;8.690;2022-08-05T15:34:47;8;8;
43280;PMS5003;62175;49.416;8.690;2022-08-05T15:37:15;9;9;
43280;PMS5003;62175;49.416;8.690;2022-08-05T15:39:42;11;11;
43280;PMS5003;62175;49.416;8.690;2022-08-05T15:42:09;13;12;
43280;PMS5003;62175;49.416;8.690;2022-08-05T15:44:38;12;12;
43280;PMS5003;62175;49.416;8.690;2022-08-05T15:47:06;14;11;
43280;PMS5003;62175;49.416;8.690;2022-08-05T15:49:33;10;10;
43280;PMS5003;62175;49.416;8.690;2022-08-05T15:52:01;11;11;
43280;PMS5003;62175;49.416;8.690;2022-08-05T15:54:29;12;12;
43280;PMS5003;62175;49.416;8.690;2022-08-05T15:56:56;16;14;
43280;PMS5003;62175;49.416;8.690;2022-08-05T15:59:23;13;12;
43280;PMS5003;62175;49.416;8.690;2022-08-05T16:01:51;12;12;
43280;PMS5003;62175;49.416;8.690;2022-08-05T16:04:19;16;13;
43280;PMS5003;62175;49.416;8.690;2022-08-05T16:06:46;17;15;
43280;PMS5003;62175;49.416;8.690;2022-08-05T16:09:13;15;15;
43280;PMS5003;62175;49.416;8.690;2022-08-05T16:11:41;12;12;
43280;PMS5003;62175;49.416;8.690;2022-08-05T16:14:08;14;14;
43280;PMS5003;62175;49.416;8.690;2022-08-05T16:16:35;15;15;
43280;PMS5003;62175;49.416;8.690;2022-08-05T16:19:02;15;13;
43280;PMS5003;62175;49.416;8.690;2022-08-05T16:21:30;12;12;
43280;PMS5003;62175;49.416;8.690;2022-08-05T16:23:57;17;14;
43280;PMS5003;62175;49.416;8.690;2022-08-05T16:26:25;15;14;
43280;PMS5003;62175;49.416;8.690;2022-08-05T16:28:52;15;14;
43280;PMS5003;62175;49.416;8.690;2022-08-05T16:31:20;12;12;
43280;PMS5003;62175;49.416;8.690;2022-08-05T16:33:47;26;21;
43280;PMS5003;62175;49.416;8.690;2022-08-05T16:36:15;20;18;
43280;PMS5003;62175;49.416;8.690;2022-08-05T16:38:42;19;18;
43280;PMS5003;62175;49.416;8.690;2022-08-05T16:41:09;19;19;
43280;PMS5003;62175;49.416;8.690;2022-08-05T16:43:37;18;17;
43280;PMS5003;62175;49.416;8.690;2022-08-05T16:46:04;17;17;
43280;PMS5003;62175;49.416;8.690;2022-08-05T16:48:31;19;18;
43280;PMS5003;62175;49.416;8.690;2022-08-05T16:50:58;20;18;
43280;PMS5003;62175;49.416;8.690;2022-08-05T16:53:25;17;17;
43280;PMS5003;62175;49.416;8.690;2022-08-05T16:55:52;15;15;